UAL916 KPHX-KDEN
Flight info
| Callsign | UAL916 |
|---|---|
| Flight time | 1h 15m |
| Altitude | 37000 |
| Route | MRBIL1 JARPA CRUDD TBARR4 |
| Aircraft | B738/M-SDE2E3FGHIRWXY/LB1 |
Departure
| Time | 2026-05-04 23:46 |
|---|---|
| Airport | Phoenix Sky Harbor International Airport (KPHX) |
Arrival
| Time | 2026-05-05 01:01 |
|---|---|
| Airport | Denver International Airport (KDEN) |
| Time | Latitude | Longitude | Altitude | Speed | Heading |
|---|---|---|---|---|---|
| 2026-05-04 22:43 | 33.43799 | -112.00823 | 1133 ft | 0 kts | 270° |
| 2026-05-04 23:34 | 33.43799 | -112.00816 | 1134 ft | 0 kts | 270° |
| 2026-05-04 23:39 | 33.43800 | -112.00821 | 1134 ft | 1 kts | 289° |
| 2026-05-04 23:39 | 33.43813 | -112.00825 | 1133 ft | 2 kts | 5° |
| 2026-05-04 23:39 | 33.43837 | -112.00803 | 1132 ft | 7 kts | 36° |
| 2026-05-04 23:40 | 33.43886 | -112.00746 | 1131 ft | 12 kts | 57° |
| 2026-05-04 23:40 | 33.43904 | -112.00630 | 1130 ft | 17 kts | 94° |
| 2026-05-04 23:40 | 33.43885 | -112.00499 | 1132 ft | 14 kts | 124° |
| 2026-05-04 23:40 | 33.43781 | -112.00466 | 1131 ft | 18 kts | 180° |
| 2026-05-04 23:41 | 33.43641 | -112.00468 | 1132 ft | 22 kts | 180° |
| 2026-05-04 23:41 | 33.43482 | -112.00467 | 1131 ft | 24 kts | 180° |
| 2026-05-04 23:41 | 33.43315 | -112.00467 | 1133 ft | 19 kts | 180° |
| 2026-05-04 23:41 | 33.43216 | -112.00399 | 1135 ft | 18 kts | 102° |
| 2026-05-04 23:42 | 33.43214 | -112.00235 | 1134 ft | 21 kts | 90° |
| 2026-05-04 23:42 | 33.43213 | -112.00048 | 1134 ft | 24 kts | 90° |
| 2026-05-04 23:42 | 33.43212 | -111.99836 | 1131 ft | 26 kts | 89° |
| 2026-05-04 23:42 | 33.43212 | -111.99627 | 1131 ft | 24 kts | 90° |
| 2026-05-04 23:43 | 33.43210 | -111.99433 | 1133 ft | 19 kts | 91° |
| 2026-05-04 23:43 | 33.43210 | -111.99424 | 1132 ft | 0 kts | 91° |
| 2026-05-04 23:44 | 33.43210 | -111.99415 | 1134 ft | 3 kts | 91° |
| 2026-05-04 23:44 | 33.43204 | -111.99360 | 1133 ft | 10 kts | 118° |
| 2026-05-04 23:44 | 33.43130 | -111.99358 | 1135 ft | 13 kts | 209° |
| 2026-05-04 23:44 | 33.43102 | -111.99442 | 1135 ft | 0 kts | 272° |
| 2026-05-04 23:45 | 33.43103 | -111.99468 | 1136 ft | 23 kts | 270° |
| 2026-05-04 23:45 | 33.43102 | -112.00049 | 1136 ft | 114 kts | 270° |
| 2026-05-04 23:46 | 33.43102 | -112.00822 | 1137 ft | 165 kts | 270° |
| 2026-05-04 23:46 | 33.43092 | -112.02359 | 1714 ft | 198 kts | 270° |
| 2026-05-04 23:46 | 33.43077 | -112.04087 | 2553 ft | 218 kts | 266° |
| 2026-05-04 23:46 | 33.43091 | -112.05952 | 3315 ft | 232 kts | 270° |
| 2026-05-04 23:47 | 33.43174 | -112.07907 | 4122 ft | 236 kts | 270° |
| 2026-05-04 23:47 | 33.43246 | -112.09876 | 4934 ft | 237 kts | 269° |
| 2026-05-04 23:47 | 33.43309 | -112.11867 | 5917 ft | 245 kts | 268° |
| 2026-05-04 23:47 | 33.43370 | -112.13921 | 7076 ft | 244 kts | 268° |
| 2026-05-04 23:48 | 33.43445 | -112.15947 | 8155 ft | 244 kts | 273° |
| 2026-05-04 23:48 | 33.44050 | -112.17856 | 9000 ft | 258 kts | 301° |
| 2026-05-04 23:48 | 33.45433 | -112.19283 | 9872 ft | 274 kts | 330° |
| 2026-05-04 23:48 | 33.47332 | -112.19760 | 10659 ft | 287 kts | 355° |
| 2026-05-04 23:49 | 33.49345 | -112.19718 | 11466 ft | 292 kts | 358° |
| 2026-05-04 23:49 | 33.51396 | -112.19649 | 12248 ft | 296 kts | 357° |
| 2026-05-04 23:49 | 33.53471 | -112.19542 | 13065 ft | 303 kts | 2° |
| 2026-05-04 23:49 | 33.55628 | -112.19025 | 13412 ft | 329 kts | 11° |
| 2026-05-04 23:50 | 33.57932 | -112.18269 | 13630 ft | 355 kts | 12° |
| 2026-05-04 23:50 | 33.60320 | -112.17454 | 14184 ft | 367 kts | 16° |
| 2026-05-04 23:50 | 33.62575 | -112.15948 | 14894 ft | 377 kts | 40° |
| 2026-05-04 23:50 | 33.64410 | -112.13673 | 15705 ft | 380 kts | 47° |
| 2026-05-04 23:51 | 33.66167 | -112.11266 | 16408 ft | 386 kts | 47° |
| 2026-05-04 23:51 | 33.67962 | -112.08847 | 17113 ft | 391 kts | 45° |
| 2026-05-04 23:51 | 33.69848 | -112.06465 | 17829 ft | 395 kts | 43° |
| 2026-05-04 23:51 | 33.71767 | -112.04074 | 18497 ft | 399 kts | 43° |
| 2026-05-04 23:52 | 33.73698 | -112.01641 | 19062 ft | 406 kts | 43° |
| 2026-05-04 23:52 | 33.75644 | -111.99134 | 19605 ft | 413 kts | 45° |
| 2026-05-04 23:52 | 33.77498 | -111.96515 | 20131 ft | 421 kts | 49° |
| 2026-05-04 23:52 | 33.79312 | -111.93718 | 20668 ft | 427 kts | 51° |
| 2026-05-04 23:53 | 33.81078 | -111.90801 | 21204 ft | 434 kts | 52° |
| 2026-05-04 23:53 | 33.82827 | -111.87858 | 21732 ft | 439 kts | 52° |
| 2026-05-04 23:53 | 33.84631 | -111.84861 | 22246 ft | 445 kts | 52° |
| 2026-05-04 23:53 | 33.86487 | -111.81842 | 22757 ft | 451 kts | 51° |
| 2026-05-04 23:54 | 33.88387 | -111.78804 | 23269 ft | 456 kts | 51° |
| 2026-05-04 23:54 | 33.90321 | -111.75740 | 23724 ft | 462 kts | 51° |
| 2026-05-04 23:54 | 33.92281 | -111.72643 | 24130 ft | 467 kts | 51° |
| 2026-05-04 23:54 | 33.94253 | -111.69522 | 24562 ft | 470 kts | 51° |
| 2026-05-04 23:55 | 33.96240 | -111.66369 | 25021 ft | 473 kts | 51° |
| 2026-05-04 23:55 | 33.98210 | -111.63238 | 25464 ft | 477 kts | 51° |
| 2026-05-04 23:55 | 34.02922 | -111.57680 | 26281 ft | 475 kts | 26° |
| 2026-05-04 23:56 | 34.05782 | -111.55682 | 26778 ft | 475 kts | 24° |
| 2026-05-04 23:56 | 34.08676 | -111.53725 | 27216 ft | 479 kts | 24° |
| 2026-05-04 23:56 | 34.11558 | -111.51639 | 27635 ft | 486 kts | 27° |
| 2026-05-04 23:56 | 34.14417 | -111.49406 | 28065 ft | 491 kts | 28° |
| 2026-05-04 23:57 | 34.17274 | -111.47115 | 28503 ft | 494 kts | 29° |
| 2026-05-04 23:57 | 34.20148 | -111.44815 | 28916 ft | 497 kts | 28° |
| 2026-05-04 23:57 | 34.23055 | -111.42516 | 29273 ft | 501 kts | 28° |
| 2026-05-04 23:57 | 34.25958 | -111.40248 | 29643 ft | 504 kts | 27° |
| 2026-05-04 23:58 | 34.28921 | -111.37953 | 30020 ft | 507 kts | 27° |
| 2026-05-04 23:58 | 34.31905 | -111.35652 | 30325 ft | 510 kts | 27° |
| 2026-05-04 23:58 | 34.34906 | -111.33339 | 30604 ft | 514 kts | 27° |
| 2026-05-04 23:58 | 34.37931 | -111.31005 | 30872 ft | 517 kts | 27° |
| 2026-05-04 23:59 | 34.40971 | -111.28653 | 31140 ft | 519 kts | 27° |
| 2026-05-04 23:59 | 34.44025 | -111.26286 | 31430 ft | 521 kts | 27° |
| 2026-05-04 23:59 | 34.47092 | -111.23905 | 31673 ft | 524 kts | 27° |
| 2026-05-04 23:59 | 34.50179 | -111.21507 | 31917 ft | 527 kts | 27° |
| 2026-05-05 00:00 | 34.53266 | -111.19105 | 32239 ft | 527 kts | 27° |
| 2026-05-05 00:00 | 34.55308 | -111.17514 | 32476 ft | 526 kts | 26° |
| 2026-05-05 00:00 | 34.59429 | -111.14305 | 32921 ft | 526 kts | 26° |
| 2026-05-05 00:00 | 34.62472 | -111.11903 | 33215 ft | 529 kts | 29° |
| 2026-05-05 00:01 | 34.65293 | -111.08949 | 33521 ft | 539 kts | 41° |
| 2026-05-05 00:01 | 34.67852 | -111.05607 | 33848 ft | 541 kts | 44° |
| 2026-05-05 00:01 | 34.70349 | -111.02188 | 34124 ft | 542 kts | 44° |
| 2026-05-05 00:01 | 34.72904 | -110.98809 | 34404 ft | 541 kts | 41° |
| 2026-05-05 00:02 | 34.75560 | -110.95586 | 34711 ft | 539 kts | 39° |
| 2026-05-05 00:02 | 34.78276 | -110.92439 | 34993 ft | 539 kts | 38° |
| 2026-05-05 00:02 | 34.81004 | -110.89305 | 35298 ft | 539 kts | 38° |
| 2026-05-05 00:02 | 34.83712 | -110.86155 | 35611 ft | 539 kts | 38° |
| 2026-05-05 00:03 | 34.86410 | -110.82958 | 35885 ft | 541 kts | 39° |
| 2026-05-05 00:03 | 34.89084 | -110.79738 | 36199 ft | 541 kts | 39° |
| 2026-05-05 00:03 | 34.91749 | -110.76493 | 36550 ft | 539 kts | 39° |
| 2026-05-05 00:03 | 34.94388 | -110.73259 | 36884 ft | 538 kts | 39° |
| 2026-05-05 00:04 | 34.97036 | -110.70012 | 36999 ft | 542 kts | 39° |
| 2026-05-05 00:04 | 35.02362 | -110.63487 | 36997 ft | 546 kts | 39° |
| 2026-05-05 00:05 | 35.07701 | -110.56936 | 36948 ft | 539 kts | 39° |
| 2026-05-05 00:05 | 35.12985 | -110.50448 | 36917 ft | 537 kts | 38° |
| 2026-05-05 00:06 | 35.18231 | -110.44002 | 36868 ft | 538 kts | 38° |
| 2026-05-05 00:06 | 35.23497 | -110.37517 | 36817 ft | 538 kts | 38° |
| 2026-05-05 00:07 | 35.28774 | -110.31004 | 36813 ft | 538 kts | 38° |
| 2026-05-05 00:07 | 35.34050 | -110.24477 | 36819 ft | 538 kts | 38° |
| 2026-05-05 00:08 | 35.39315 | -110.17950 | 36794 ft | 538 kts | 38° |
| 2026-05-05 00:08 | 35.44576 | -110.11416 | 36804 ft | 538 kts | 38° |
| 2026-05-05 00:09 | 35.49796 | -110.04920 | 36780 ft | 538 kts | 38° |
| 2026-05-05 00:09 | 35.55051 | -109.98368 | 36784 ft | 537 kts | 38° |
| 2026-05-05 00:10 | 35.60295 | -109.91816 | 36793 ft | 536 kts | 38° |
| 2026-05-05 00:10 | 35.65522 | -109.85272 | 36778 ft | 535 kts | 38° |
| 2026-05-05 00:11 | 35.70728 | -109.78742 | 36796 ft | 535 kts | 38° |
| 2026-05-05 00:11 | 35.75929 | -109.72202 | 36775 ft | 534 kts | 38° |
| 2026-05-05 00:12 | 35.81093 | -109.65699 | 36771 ft | 533 kts | 38° |
| 2026-05-05 00:12 | 35.86268 | -109.59155 | 36769 ft | 532 kts | 38° |
| 2026-05-05 00:13 | 35.91428 | -109.52617 | 36767 ft | 532 kts | 38° |
| 2026-05-05 00:13 | 35.96584 | -109.46056 | 36770 ft | 532 kts | 38° |
| 2026-05-05 00:14 | 36.01728 | -109.39487 | 36775 ft | 531 kts | 38° |
| 2026-05-05 00:14 | 36.06857 | -109.32909 | 36771 ft | 531 kts | 38° |
| 2026-05-05 00:15 | 36.11976 | -109.26321 | 36778 ft | 529 kts | 38° |
| 2026-05-05 00:15 | 36.17059 | -109.19740 | 36793 ft | 529 kts | 38° |
| 2026-05-05 00:16 | 36.22109 | -109.13196 | 36778 ft | 529 kts | 38° |
| 2026-05-05 00:16 | 36.27204 | -109.06610 | 36791 ft | 526 kts | 34° |
| 2026-05-05 00:16 | 36.30113 | -109.04138 | 36780 ft | 490 kts | 11° |
| 2026-05-05 00:17 | 36.33241 | -109.02620 | 36768 ft | 479 kts | 5° |
| 2026-05-05 00:17 | 36.39496 | -108.99487 | 36766 ft | 503 kts | 20° |
| 2026-05-05 00:17 | 36.42403 | -108.96966 | 36792 ft | 515 kts | 28° |
| 2026-05-05 00:18 | 36.45170 | -108.94080 | 36778 ft | 521 kts | 32° |
| 2026-05-05 00:18 | 36.50572 | -108.88026 | 36768 ft | 522 kts | 33° |
| 2026-05-05 00:19 | 36.55949 | -108.82029 | 36763 ft | 521 kts | 32° |
| 2026-05-05 00:19 | 36.61377 | -108.76044 | 36768 ft | 521 kts | 32° |
| 2026-05-05 00:20 | 36.66818 | -108.70055 | 36770 ft | 522 kts | 32° |
| 2026-05-05 00:20 | 36.72262 | -108.64043 | 36790 ft | 522 kts | 32° |
| 2026-05-05 00:21 | 36.77687 | -108.58032 | 36838 ft | 522 kts | 32° |
| 2026-05-05 00:21 | 36.83117 | -108.52003 | 36859 ft | 522 kts | 32° |
| 2026-05-05 00:22 | 36.88536 | -108.45973 | 36868 ft | 522 kts | 32° |
| 2026-05-05 00:22 | 36.93950 | -108.39936 | 36861 ft | 521 kts | 32° |
| 2026-05-05 00:23 | 36.99311 | -108.33948 | 36858 ft | 519 kts | 32° |
| 2026-05-05 00:23 | 37.04687 | -108.27930 | 36857 ft | 518 kts | 32° |
| 2026-05-05 00:24 | 37.10057 | -108.21910 | 36839 ft | 516 kts | 32° |
| 2026-05-05 00:24 | 37.15402 | -108.15905 | 36865 ft | 515 kts | 32° |
| 2026-05-05 00:25 | 37.20722 | -108.09916 | 36895 ft | 514 kts | 32° |
| 2026-05-05 00:25 | 37.26037 | -108.03922 | 36909 ft | 513 kts | 32° |
| 2026-05-05 00:26 | 37.31339 | -107.97931 | 36941 ft | 513 kts | 32° |
| 2026-05-05 00:26 | 37.36613 | -107.91960 | 36930 ft | 514 kts | 32° |
| 2026-05-05 00:27 | 37.41924 | -107.85933 | 36919 ft | 515 kts | 32° |
| 2026-05-05 00:27 | 37.47234 | -107.79895 | 36901 ft | 513 kts | 32° |
| 2026-05-05 00:28 | 37.52529 | -107.73860 | 36910 ft | 513 kts | 32° |
| 2026-05-05 00:28 | 37.57812 | -107.67831 | 36918 ft | 512 kts | 32° |
| 2026-05-05 00:29 | 37.63023 | -107.61865 | 36978 ft | 508 kts | 32° |
| 2026-05-05 00:29 | 37.68286 | -107.55839 | 36922 ft | 512 kts | 31° |
| 2026-05-05 00:30 | 37.73566 | -107.49778 | 36907 ft | 513 kts | 32° |
| 2026-05-05 00:30 | 37.76207 | -107.46734 | 37012 ft | 515 kts | 32° |
| 2026-05-05 00:30 | 37.78858 | -107.43640 | 36984 ft | 520 kts | 32° |
| 2026-05-05 00:31 | 37.84157 | -107.37375 | 36944 ft | 522 kts | 33° |
| 2026-05-05 00:31 | 37.89461 | -107.31081 | 36916 ft | 522 kts | 33° |
| 2026-05-05 00:32 | 37.93825 | -107.25894 | 36895 ft | 512 kts | 32° |
| 2026-05-05 00:32 | 37.99841 | -107.18761 | 36912 ft | 508 kts | 32° |
| 2026-05-05 00:33 | 38.04174 | -107.13623 | 36909 ft | 509 kts | 32° |
| 2026-05-05 00:33 | 38.09317 | -107.07502 | 36899 ft | 511 kts | 32° |
| 2026-05-05 00:34 | 38.14487 | -107.01326 | 36920 ft | 510 kts | 33° |
| 2026-05-05 00:34 | 38.19450 | -106.94728 | 36899 ft | 521 kts | 40° |
| 2026-05-05 00:35 | 38.24057 | -106.87521 | 36896 ft | 527 kts | 44° |
| 2026-05-05 00:35 | 38.26283 | -106.83854 | 36630 ft | 531 kts | 44° |
| 2026-05-05 00:35 | 38.28565 | -106.80148 | 36160 ft | 530 kts | 43° |
| 2026-05-05 00:35 | 38.30863 | -106.76505 | 35679 ft | 526 kts | 43° |
| 2026-05-05 00:36 | 38.33171 | -106.72925 | 35327 ft | 521 kts | 42° |
| 2026-05-05 00:36 | 38.35481 | -106.69390 | 34917 ft | 517 kts | 42° |
| 2026-05-05 00:36 | 38.37786 | -106.65885 | 34526 ft | 514 kts | 42° |
| 2026-05-05 00:36 | 38.40079 | -106.62399 | 34108 ft | 512 kts | 42° |
| 2026-05-05 00:37 | 38.42362 | -106.58920 | 33663 ft | 510 kts | 43° |
| 2026-05-05 00:37 | 38.44628 | -106.55454 | 33241 ft | 507 kts | 43° |
| 2026-05-05 00:37 | 38.46851 | -106.52041 | 32819 ft | 504 kts | 42° |
| 2026-05-05 00:37 | 38.49088 | -106.48598 | 32399 ft | 501 kts | 42° |
| 2026-05-05 00:38 | 38.51306 | -106.45181 | 32036 ft | 497 kts | 42° |
| 2026-05-05 00:38 | 38.53507 | -106.41788 | 31645 ft | 494 kts | 42° |
| 2026-05-05 00:38 | 38.55688 | -106.38423 | 31265 ft | 490 kts | 42° |
| 2026-05-05 00:38 | 38.57860 | -106.35071 | 30923 ft | 487 kts | 42° |
| 2026-05-05 00:39 | 38.60013 | -106.31746 | 30534 ft | 484 kts | 42° |
| 2026-05-05 00:39 | 38.62151 | -106.28441 | 30165 ft | 481 kts | 42° |
| 2026-05-05 00:39 | 38.64279 | -106.25146 | 29772 ft | 477 kts | 42° |
| 2026-05-05 00:39 | 38.66359 | -106.21930 | 29417 ft | 471 kts | 42° |
| 2026-05-05 00:40 | 38.68436 | -106.18741 | 29158 ft | 462 kts | 42° |
| 2026-05-05 00:40 | 38.70483 | -106.15612 | 28885 ft | 452 kts | 42° |
| 2026-05-05 00:40 | 38.72491 | -106.12547 | 28647 ft | 444 kts | 42° |
| 2026-05-05 00:40 | 38.74458 | -106.09544 | 28349 ft | 437 kts | 43° |
| 2026-05-05 00:41 | 38.76402 | -106.06574 | 27991 ft | 433 kts | 43° |
| 2026-05-05 00:41 | 38.78328 | -106.03627 | 27616 ft | 429 kts | 43° |
| 2026-05-05 00:41 | 38.80241 | -106.00695 | 27235 ft | 426 kts | 44° |
| 2026-05-05 00:41 | 38.82138 | -105.97782 | 26832 ft | 423 kts | 44° |
| 2026-05-05 00:42 | 38.83990 | -105.94934 | 26440 ft | 420 kts | 44° |
| 2026-05-05 00:42 | 38.85856 | -105.92062 | 26020 ft | 416 kts | 44° |
| 2026-05-05 00:42 | 38.87700 | -105.89220 | 25639 ft | 412 kts | 45° |
| 2026-05-05 00:42 | 38.89521 | -105.86406 | 25291 ft | 407 kts | 45° |
| 2026-05-05 00:43 | 38.91308 | -105.83624 | 25020 ft | 400 kts | 45° |
| 2026-05-05 00:43 | 38.93064 | -105.80884 | 24693 ft | 395 kts | 45° |
| 2026-05-05 00:43 | 38.94809 | -105.78161 | 24313 ft | 392 kts | 46° |
| 2026-05-05 00:43 | 38.96536 | -105.75464 | 23924 ft | 390 kts | 46° |
| 2026-05-05 00:44 | 38.98235 | -105.72812 | 23519 ft | 388 kts | 46° |
| 2026-05-05 00:44 | 38.99947 | -105.70138 | 23115 ft | 386 kts | 46° |
| 2026-05-05 00:44 | 39.01648 | -105.67477 | 22702 ft | 383 kts | 46° |
| 2026-05-05 00:44 | 39.03336 | -105.64846 | 22378 ft | 378 kts | 46° |
| 2026-05-05 00:45 | 39.05007 | -105.62250 | 22014 ft | 375 kts | 47° |
| 2026-05-05 00:45 | 39.06666 | -105.59675 | 21664 ft | 372 kts | 47° |
| 2026-05-05 00:45 | 39.08311 | -105.57119 | 21315 ft | 369 kts | 47° |
| 2026-05-05 00:45 | 39.09943 | -105.54581 | 20962 ft | 367 kts | 47° |
| 2026-05-05 00:46 | 39.11562 | -105.52059 | 20610 ft | 364 kts | 47° |
| 2026-05-05 00:46 | 39.13170 | -105.49552 | 20263 ft | 362 kts | 47° |
| 2026-05-05 00:46 | 39.14768 | -105.47058 | 19908 ft | 359 kts | 48° |
| 2026-05-05 00:46 | 39.16350 | -105.44568 | 19570 ft | 358 kts | 48° |
| 2026-05-05 00:47 | 39.17916 | -105.42082 | 19219 ft | 357 kts | 49° |
| 2026-05-05 00:47 | 39.19475 | -105.39600 | 18835 ft | 355 kts | 49° |
| 2026-05-05 00:47 | 39.21009 | -105.37157 | 18503 ft | 353 kts | 49° |
| 2026-05-05 00:47 | 39.22556 | -105.34693 | 18150 ft | 352 kts | 49° |
| 2026-05-05 00:48 | 39.24098 | -105.32239 | 17766 ft | 350 kts | 49° |
| 2026-05-05 00:48 | 39.25628 | -105.29800 | 17398 ft | 348 kts | 49° |
| 2026-05-05 00:48 | 39.27147 | -105.27378 | 17115 ft | 343 kts | 49° |
| 2026-05-05 00:48 | 39.28402 | -105.24811 | 16872 ft | 339 kts | 68° |
| 2026-05-05 00:49 | 39.28945 | -105.21909 | 16597 ft | 335 kts | 82° |
| 2026-05-05 00:49 | 39.29221 | -105.18928 | 16276 ft | 333 kts | 84° |
| 2026-05-05 00:49 | 39.29490 | -105.15949 | 15932 ft | 333 kts | 82° |
| 2026-05-05 00:49 | 39.29846 | -105.13007 | 15645 ft | 330 kts | 80° |
| 2026-05-05 00:50 | 39.30236 | -105.10096 | 15353 ft | 328 kts | 80° |
| 2026-05-05 00:50 | 39.30607 | -105.07196 | 15048 ft | 326 kts | 81° |
| 2026-05-05 00:50 | 39.30955 | -105.04317 | 14743 ft | 325 kts | 81° |
| 2026-05-05 00:50 | 39.31290 | -105.01468 | 14589 ft | 317 kts | 81° |
| 2026-05-05 00:51 | 39.31669 | -104.98692 | 14443 ft | 310 kts | 77° |
| 2026-05-05 00:51 | 39.32173 | -104.96021 | 14326 ft | 302 kts | 75° |
| 2026-05-05 00:51 | 39.32684 | -104.93432 | 14230 ft | 292 kts | 75° |
| 2026-05-05 00:51 | 39.33158 | -104.90970 | 14119 ft | 279 kts | 75° |
| 2026-05-05 00:52 | 39.33611 | -104.88563 | 13976 ft | 266 kts | 76° |
| 2026-05-05 00:52 | 39.34085 | -104.86315 | 13730 ft | 261 kts | 71° |
| 2026-05-05 00:52 | 39.34656 | -104.84071 | 13479 ft | 267 kts | 70° |
| 2026-05-05 00:52 | 39.35258 | -104.81756 | 13183 ft | 275 kts | 70° |
| 2026-05-05 00:53 | 39.36207 | -104.79635 | 12848 ft | 273 kts | 43° |
| 2026-05-05 00:53 | 39.37753 | -104.78285 | 12566 ft | 266 kts | 19° |
| 2026-05-05 00:53 | 39.39520 | -104.77640 | 12286 ft | 263 kts | 10° |
| 2026-05-05 00:53 | 39.41297 | -104.77148 | 12046 ft | 260 kts | 10° |
| 2026-05-05 00:54 | 39.43054 | -104.76625 | 11831 ft | 257 kts | 12° |
| 2026-05-05 00:54 | 39.44753 | -104.76072 | 11612 ft | 254 kts | 13° |
| 2026-05-05 00:54 | 39.46464 | -104.75507 | 11396 ft | 252 kts | 13° |
| 2026-05-05 00:54 | 39.48156 | -104.74950 | 11171 ft | 250 kts | 13° |
| 2026-05-05 00:55 | 39.49837 | -104.74399 | 10963 ft | 248 kts | 13° |
| 2026-05-05 00:55 | 39.51504 | -104.73856 | 10749 ft | 246 kts | 14° |
| 2026-05-05 00:55 | 39.53159 | -104.73318 | 10531 ft | 244 kts | 14° |
| 2026-05-05 00:55 | 39.54801 | -104.72785 | 10320 ft | 242 kts | 14° |
| 2026-05-05 00:56 | 39.56437 | -104.72254 | 10114 ft | 241 kts | 14° |
| 2026-05-05 00:56 | 39.58065 | -104.71766 | 9890 ft | 240 kts | 8° |
| 2026-05-05 00:56 | 39.59720 | -104.71886 | 9649 ft | 241 kts | 346° |
| 2026-05-05 00:56 | 39.61267 | -104.72716 | 9455 ft | 239 kts | 342° |
| 2026-05-05 00:57 | 39.62883 | -104.72736 | 9205 ft | 235 kts | 19° |
| 2026-05-05 00:57 | 39.64386 | -104.71875 | 9100 ft | 238 kts | 27° |
| 2026-05-05 00:57 | 39.65745 | -104.70706 | 9033 ft | 236 kts | 37° |
| 2026-05-05 00:57 | 39.67037 | -104.69403 | 9031 ft | 235 kts | 37° |
| 2026-05-05 00:58 | 39.68330 | -104.68085 | 8981 ft | 236 kts | 38° |
| 2026-05-05 00:58 | 39.69664 | -104.66855 | 8719 ft | 231 kts | 22° |
| 2026-05-05 00:58 | 39.71205 | -104.66474 | 8409 ft | 225 kts | 5° |
| 2026-05-05 00:58 | 39.72764 | -104.66312 | 7953 ft | 221 kts | 5° |
| 2026-05-05 00:59 | 39.74270 | -104.66160 | 7491 ft | 213 kts | 2° |
| 2026-05-05 00:59 | 39.75727 | -104.66126 | 7069 ft | 205 kts | 360° |
| 2026-05-05 00:59 | 39.77109 | -104.66118 | 6693 ft | 196 kts | 0° |
| 2026-05-05 00:59 | 39.78407 | -104.66104 | 6450 ft | 178 kts | 360° |
| 2026-05-05 01:00 | 39.79577 | -104.66089 | 6187 ft | 158 kts | 359° |
| 2026-05-05 01:00 | 39.80587 | -104.66078 | 5961 ft | 135 kts | 359° |
| 2026-05-05 01:00 | 39.81505 | -104.66068 | 5760 ft | 131 kts | 359° |
| 2026-05-05 01:00 | 39.82433 | -104.66058 | 5562 ft | 137 kts | 0° |
| 2026-05-05 01:01 | 39.83373 | -104.66047 | 5446 ft | 126 kts | 0° |
| 2026-05-05 01:01 | 39.84128 | -104.66039 | 5419 ft | 71 kts | 0° |
| 2026-05-05 01:01 | 39.84501 | -104.66035 | 5419 ft | 43 kts | 359° |
| 2026-05-05 01:01 | 39.84724 | -104.66063 | 5407 ft | 16 kts | 347° |
| 2026-05-05 01:02 | 39.84824 | -104.66111 | 5401 ft | 15 kts | 332° |
| 2026-05-05 01:02 | 39.84914 | -104.66172 | 5392 ft | 15 kts | 330° |
| 2026-05-05 01:02 | 39.85009 | -104.66227 | 5396 ft | 14 kts | 341° |
| 2026-05-05 01:02 | 39.85105 | -104.66244 | 5395 ft | 14 kts | 359° |
| 2026-05-05 01:03 | 39.85195 | -104.66243 | 5393 ft | 12 kts | 359° |
| 2026-05-05 01:03 | 39.85281 | -104.66244 | 5396 ft | 12 kts | 2° |
| 2026-05-05 01:03 | 39.85364 | -104.66241 | 5395 ft | 12 kts | 1° |
| 2026-05-05 01:03 | 39.85445 | -104.66240 | 5390 ft | 12 kts | 2° |
| 2026-05-05 01:04 | 39.85534 | -104.66241 | 5393 ft | 14 kts | 359° |
| 2026-05-05 01:04 | 39.85768 | -104.66240 | 5389 ft | 19 kts | 0° |
| 2026-05-05 01:04 | 39.85909 | -104.66237 | 5391 ft | 18 kts | 358° |
| 2026-05-05 01:05 | 39.85999 | -104.66264 | 5388 ft | 12 kts | 313° |
| 2026-05-05 01:05 | 39.86016 | -104.66364 | 5386 ft | 12 kts | 275° |
| 2026-05-05 01:05 | 39.86017 | -104.66472 | 5386 ft | 12 kts | 269° |
| 2026-05-05 01:05 | 39.86018 | -104.66576 | 5386 ft | 11 kts | 271° |
| 2026-05-05 01:06 | 39.86019 | -104.66677 | 5386 ft | 11 kts | 270° |
| 2026-05-05 01:06 | 39.86019 | -104.66775 | 5386 ft | 11 kts | 270° |
| 2026-05-05 01:06 | 39.86018 | -104.66866 | 5386 ft | 5 kts | 268° |
| 2026-05-05 01:06 | 39.86004 | -104.66908 | 5384 ft | 5 kts | 219° |
| 2026-05-05 01:07 | 39.85974 | -104.66914 | 5386 ft | 1 kts | 180° |
| 2026-05-05 01:07 | 39.85965 | -104.66914 | 5386 ft | 1 kts | 180° |
| 2026-05-05 01:07 | 39.85958 | -104.66914 | 5386 ft | 1 kts | 179° |
| 2026-05-05 01:07 | 39.85951 | -104.66914 | 5386 ft | 1 kts | 179° |
| 2026-05-05 01:08 | 39.85944 | -104.66914 | 5386 ft | 1 kts | 179° |
| 2026-05-05 01:08 | 39.85937 | -104.66914 | 5386 ft | 1 kts | 179° |
| 2026-05-05 01:08 | 39.85936 | -104.66914 | 5386 ft | 0 kts | 179° |